createdAt,value
2018-05-18T00:00:23.459Z,15.84
2018-05-18T00:02:51.714Z,15.84
2018-05-18T00:05:19.466Z,15.93
2018-05-18T00:07:47.332Z,15.95
2018-05-18T00:10:15.712Z,15.86
2018-05-18T00:12:43.539Z,15.85
2018-05-18T00:15:11.482Z,15.77
2018-05-18T00:17:39.795Z,15.69
2018-05-18T00:20:07.828Z,15.69
2018-05-18T00:22:35.691Z,15.67
2018-05-18T00:25:04.219Z,15.58
2018-05-18T00:27:32.111Z,15.44
2018-05-18T00:30:00.017Z,15.35
2018-05-18T00:32:28.628Z,15.51
2018-05-18T00:34:56.413Z,15.44
2018-05-18T00:37:24.321Z,15.49
2018-05-18T00:39:52.795Z,15.49
2018-05-18T00:42:20.880Z,15.49
2018-05-18T00:44:49.335Z,15.48
2018-05-18T00:47:17.832Z,15.44
2018-05-18T00:49:45.698Z,15.40
2018-05-18T00:52:13.611Z,15.42
2018-05-18T00:54:41.970Z,15.40
2018-05-18T00:57:09.916Z,15.41
2018-05-18T00:59:37.777Z,15.38
2018-05-18T01:02:06.323Z,15.27
2018-05-18T01:04:34.128Z,15.31
2018-05-18T01:07:02.159Z,15.28
2018-05-18T01:09:31.395Z,15.20
2018-05-18T01:11:59.366Z,15.23
2018-05-18T01:14:27.428Z,15.18
2018-05-18T01:16:55.714Z,15.18
2018-05-18T01:19:23.863Z,15.16
2018-05-18T01:21:52.192Z,15.19
2018-05-18T01:24:20.256Z,15.19
2018-05-18T01:26:48.025Z,15.18
2018-05-18T01:29:16.121Z,15.14
2018-05-18T01:31:44.240Z,15.05
2018-05-18T01:34:12.107Z,15.01
2018-05-18T01:36:40.109Z,15.01
2018-05-18T01:39:08.147Z,14.76
2018-05-18T01:41:36.045Z,15.02
2018-05-18T01:44:04.345Z,15.03
2018-05-18T01:46:32.771Z,15.04
2018-05-18T01:49:00.738Z,15.02
2018-05-18T01:51:28.638Z,15.00
2018-05-18T01:53:57.392Z,14.91
2018-05-18T01:56:25.394Z,14.94
2018-05-18T01:58:53.538Z,14.93
2018-05-18T02:01:22.248Z,14.96
2018-05-18T02:03:50.119Z,14.83
2018-05-18T02:06:17.899Z,14.83
2018-05-18T02:08:46.270Z,14.92
2018-05-18T02:11:14.021Z,14.97
2018-05-18T02:13:41.816Z,14.93
2018-05-18T02:16:10.173Z,14.94
2018-05-18T02:18:38.153Z,14.81
2018-05-18T02:21:06.073Z,14.89
2018-05-18T02:23:34.359Z,14.89
2018-05-18T02:26:02.451Z,14.83
2018-05-18T02:28:30.198Z,14.73
2018-05-18T02:30:58.296Z,14.84
2018-05-18T02:33:26.426Z,14.79
2018-05-18T02:35:54.403Z,14.77
2018-05-18T02:38:22.533Z,14.67
2018-05-18T02:40:51.001Z,14.79
2018-05-18T02:43:18.757Z,14.44
2018-05-18T02:45:47.353Z,14.81
2018-05-18T02:48:15.278Z,14.73
2018-05-18T02:50:43.141Z,14.72
2018-05-18T02:53:11.319Z,14.68
2018-05-18T02:55:39.299Z,14.62
2018-05-18T02:58:07.208Z,14.53
2018-05-18T03:00:35.530Z,14.58
2018-05-18T03:03:03.692Z,14.66
2018-05-18T03:05:31.766Z,14.63
2018-05-18T03:07:59.961Z,14.62
2018-05-18T03:10:27.871Z,14.63
2018-05-18T03:12:56.323Z,14.56
2018-05-18T03:15:24.980Z,14.58
2018-05-18T03:17:52.842Z,14.57
2018-05-18T03:20:20.843Z,14.54
2018-05-18T03:22:49.631Z,14.48
2018-05-18T03:25:17.973Z,14.26
2018-05-18T03:27:45.837Z,14.37
2018-05-18T03:30:14.526Z,14.49
2018-05-18T03:32:42.498Z,14.42
2018-05-18T03:35:10.360Z,14.44
2018-05-18T03:37:39.132Z,14.49
2018-05-18T03:40:07.015Z,14.31
2018-05-18T03:42:34.888Z,14.46
2018-05-18T03:45:03.166Z,14.40
2018-05-18T03:47:31.376Z,14.48
2018-05-18T03:49:59.092Z,14.52
2018-05-18T03:52:27.127Z,14.53
2018-05-18T03:54:54.888Z,14.47
2018-05-18T03:57:22.604Z,14.55
2018-05-18T03:59:50.925Z,14.55
2018-05-18T04:02:30.820Z,14.51
2018-05-18T04:05:11.071Z,14.33
2018-05-18T04:07:50.740Z,14.36
2018-05-18T04:10:18.937Z,14.44
2018-05-18T04:12:46.767Z,14.48
2018-05-18T04:15:14.836Z,14.56
2018-05-18T04:17:43.642Z,14.63
2018-05-18T04:20:11.409Z,14.56
2018-05-18T04:22:39.180Z,14.52
2018-05-18T04:25:07.436Z,14.55
2018-05-18T04:27:35.624Z,14.52
2018-05-18T04:30:03.410Z,14.58
2018-05-18T04:32:31.819Z,14.60
2018-05-18T04:34:59.844Z,14.64
2018-05-18T04:37:27.744Z,14.67
2018-05-18T04:39:55.939Z,14.65
2018-05-18T04:42:23.814Z,14.47
2018-05-18T04:44:51.547Z,14.51
2018-05-18T04:47:20.019Z,14.42
2018-05-18T04:49:47.924Z,14.50
2018-05-18T04:52:15.616Z,14.45
2018-05-18T04:54:43.846Z,14.47
2018-05-18T04:57:11.889Z,14.44
2018-05-18T04:59:40.415Z,14.47
2018-05-18T05:02:08.704Z,14.44
2018-05-18T05:04:36.792Z,14.42
2018-05-18T05:07:05.366Z,14.38
2018-05-18T05:09:33.446Z,14.46
2018-05-18T05:12:01.486Z,14.46
2018-05-18T05:14:29.269Z,14.44
2018-05-18T05:16:57.591Z,14.39
2018-05-18T05:19:25.495Z,14.51
2018-05-18T05:21:53.924Z,14.56
2018-05-18T05:24:22.050Z,14.57
2018-05-18T05:26:50.118Z,14.53
2018-05-18T05:29:17.954Z,14.50
2018-05-18T05:31:46.057Z,14.55
2018-05-18T05:34:14.303Z,14.31
2018-05-18T05:36:42.264Z,14.60
2018-05-18T05:39:10.512Z,14.62
2018-05-18T05:41:38.996Z,14.60
2018-05-18T05:44:07.913Z,14.67
2018-05-18T05:46:35.973Z,14.64
2018-05-18T05:49:03.997Z,14.69
2018-05-18T05:51:31.877Z,14.57
2018-05-18T05:54:00.124Z,14.58
2018-05-18T05:56:28.306Z,14.61
2018-05-18T05:58:56.056Z,14.60
2018-05-18T06:01:23.989Z,14.59
2018-05-18T06:03:51.969Z,14.55
2018-05-18T06:06:19.700Z,14.62
2018-05-18T06:08:47.633Z,14.71
2018-05-18T06:11:15.861Z,14.72
2018-05-18T06:13:44.007Z,14.80
2018-05-18T06:16:12.379Z,14.88
2018-05-18T06:18:40.337Z,14.93
2018-05-18T06:21:08.320Z,14.90
2018-05-18T06:23:36.243Z,14.91
2018-05-18T06:26:04.152Z,14.87
2018-05-18T06:28:32.156Z,14.90
2018-05-18T06:31:00.274Z,14.90
2018-05-18T06:33:28.103Z,14.91
2018-05-18T06:35:56.325Z,14.99
2018-05-18T06:38:24.393Z,15.11
2018-05-18T06:40:52.189Z,15.14
2018-05-18T06:43:21.043Z,15.02
2018-05-18T06:45:49.159Z,15.21
2018-05-18T06:48:16.920Z,15.27
2018-05-18T06:50:44.720Z,15.30
2018-05-18T06:53:13.137Z,15.34
2018-05-18T06:55:40.929Z,15.38
2018-05-18T06:58:08.694Z,15.52
2018-05-18T07:00:36.978Z,15.56
2018-05-18T07:03:04.753Z,15.58
2018-05-18T07:05:32.759Z,15.32
2018-05-18T07:08:01.299Z,15.62
2018-05-18T07:10:29.208Z,15.74
2018-05-18T07:12:57.077Z,15.71
2018-05-18T07:15:25.498Z,15.83
2018-05-18T07:17:53.323Z,15.86
2018-05-18T07:20:22.116Z,15.90
2018-05-18T07:22:50.633Z,16.06
2018-05-18T07:25:18.462Z,15.96
2018-05-18T07:27:46.632Z,16.04
2018-05-18T07:30:15.116Z,16.24
2018-05-18T07:32:43.180Z,16.32
2018-05-18T07:35:11.050Z,16.19
2018-05-18T07:37:39.120Z,16.39
2018-05-18T07:40:07.217Z,16.60
2018-05-18T07:42:35.059Z,18.02
2018-05-18T07:45:03.105Z,19.45
2018-05-18T07:47:31.567Z,19.63
2018-05-18T07:49:59.391Z,19.59
2018-05-18T07:52:27.444Z,19.81
2018-05-18T07:54:55.647Z,19.85
2018-05-18T07:57:23.378Z,19.83
2018-05-18T07:59:51.454Z,19.76
2018-05-18T08:02:19.568Z,19.96
2018-05-18T08:04:47.447Z,19.89
2018-05-18T08:07:15.564Z,19.60
2018-05-18T08:09:43.659Z,18.84
2018-05-18T08:12:11.606Z,18.54
2018-05-18T08:14:39.780Z,18.76
2018-05-18T08:17:07.749Z,18.68
2018-05-18T08:19:35.463Z,18.66
2018-05-18T08:22:03.587Z,18.91
2018-05-18T08:24:31.661Z,18.99
2018-05-18T08:27:11.636Z,18.68
2018-05-18T08:29:39.677Z,18.56
2018-05-18T08:32:07.380Z,18.26
2018-05-18T08:34:35.591Z,17.97
2018-05-18T08:37:03.474Z,18.01
2018-05-18T08:39:31.456Z,17.99
2018-05-18T08:42:00.167Z,18.01
2018-05-18T08:44:28.079Z,18.33
2018-05-18T08:46:55.974Z,18.37
2018-05-18T08:49:24.679Z,18.52
2018-05-18T08:51:52.603Z,18.57
2018-05-18T08:54:20.417Z,18.70
2018-05-18T08:56:49.186Z,18.99
2018-05-18T08:59:17.558Z,19.16
2018-05-18T09:01:45.429Z,19.14
2018-05-18T09:04:13.930Z,19.30
2018-05-18T09:06:41.671Z,19.36
2018-05-18T09:09:09.389Z,19.36
2018-05-18T09:11:37.627Z,19.22
2018-05-18T09:14:05.395Z,19.40
2018-05-18T09:16:33.157Z,19.51
2018-05-18T09:19:01.484Z,19.33
2018-05-18T09:21:30.110Z,19.34
2018-05-18T09:23:57.853Z,19.07
2018-05-18T09:26:26.315Z,19.04
2018-05-18T09:28:54.472Z,18.89
2018-05-18T09:31:22.279Z,19.04
2018-05-18T09:33:50.507Z,19.12
2018-05-18T09:36:18.873Z,19.33
2018-05-18T09:38:46.639Z,19.50
2018-05-18T09:41:14.764Z,19.63
2018-05-18T09:43:42.988Z,19.69
2018-05-18T09:46:10.809Z,19.88
2018-05-18T09:48:38.977Z,20.08
2018-05-18T09:51:06.859Z,19.97
2018-05-18T09:53:34.700Z,19.76
2018-05-18T09:56:02.779Z,19.95
2018-05-18T09:58:31.269Z,19.96
2018-05-18T10:00:59.856Z,20.09
2018-05-18T10:03:28.187Z,19.94
2018-05-18T10:05:55.884Z,19.85
2018-05-18T10:08:23.850Z,19.95
2018-05-18T10:10:51.828Z,19.87
2018-05-18T10:13:19.947Z,20.08
2018-05-18T10:15:47.879Z,20.04
2018-05-18T10:18:15.746Z,19.83
2018-05-18T10:20:43.902Z,19.94
2018-05-18T10:23:11.849Z,20.10
2018-05-18T10:25:39.895Z,20.01
2018-05-18T10:28:07.633Z,19.99
2018-05-18T10:30:35.390Z,19.97
2018-05-18T10:33:04.008Z,19.99
2018-05-18T10:35:32.388Z,20.07
2018-05-18T10:38:00.182Z,19.97
2018-05-18T10:40:29.195Z,19.87
2018-05-18T10:42:57.009Z,20.04
2018-05-18T10:45:24.856Z,20.08
2018-05-18T10:47:53.281Z,20.25
2018-05-18T10:50:21.084Z,20.26
2018-05-18T10:52:48.842Z,20.40
2018-05-18T10:55:17.618Z,20.33
2018-05-18T10:57:46.414Z,20.45
2018-05-18T11:00:14.424Z,20.38
2018-05-18T11:02:42.631Z,20.38
2018-05-18T11:05:10.697Z,20.53
2018-05-18T11:07:38.446Z,20.37
2018-05-18T11:10:06.555Z,20.44
2018-05-18T11:12:34.934Z,20.26
2018-05-18T11:15:02.676Z,20.47
2018-05-18T11:17:30.553Z,20.50
2018-05-18T11:19:58.566Z,20.40
2018-05-18T11:22:27.173Z,20.31
2018-05-18T11:24:55.191Z,20.39
2018-05-18T11:27:23.332Z,20.42
2018-05-18T11:29:51.099Z,20.50
2018-05-18T11:32:19.335Z,20.47
2018-05-18T11:34:47.501Z,20.51
2018-05-18T11:37:15.956Z,20.62
2018-05-18T11:39:44.127Z,20.72
2018-05-18T11:42:12.300Z,20.69
2018-05-18T11:44:40.147Z,20.68
2018-05-18T11:47:08.242Z,20.67
2018-05-18T11:49:36.105Z,20.84
2018-05-18T11:52:03.880Z,20.83
2018-05-18T11:54:32.038Z,20.78
2018-05-18T11:56:59.985Z,20.86
2018-05-18T11:59:28.647Z,20.86
2018-05-18T12:01:56.846Z,20.93
2018-05-18T12:04:24.558Z,21.05
2018-05-18T12:06:52.526Z,21.26
2018-05-18T12:09:20.580Z,21.20
2018-05-18T12:11:48.326Z,21.38
2018-05-18T12:14:16.423Z,21.45
2018-05-18T12:16:45.502Z,21.43
2018-05-18T12:19:13.167Z,21.57
2018-05-18T12:21:41.429Z,21.45
2018-05-18T12:24:10.503Z,21.51
2018-05-18T12:26:38.206Z,21.65
2018-05-18T12:29:06.070Z,21.77
2018-05-18T12:31:34.139Z,21.71
2018-05-18T12:34:01.866Z,21.59
2018-05-18T12:36:29.975Z,21.64
2018-05-18T12:38:57.899Z,21.62
2018-05-18T12:41:25.660Z,21.67
2018-05-18T12:43:53.706Z,21.74
2018-05-18T12:46:21.906Z,21.64
2018-05-18T12:48:49.598Z,21.77
2018-05-18T12:51:17.421Z,21.77
2018-05-18T12:53:45.942Z,21.57
2018-05-18T12:56:13.831Z,21.73
2018-05-18T12:58:41.556Z,21.89
2018-05-18T13:01:10.232Z,22.16
2018-05-18T13:03:38.232Z,22.23
2018-05-18T13:06:05.938Z,22.03
2018-05-18T13:08:35.257Z,21.93
2018-05-18T13:11:03.802Z,22.16
2018-05-18T13:13:32.589Z,22.34
2018-05-18T13:16:01.181Z,22.20
2018-05-18T13:18:29.195Z,22.21
2018-05-18T13:20:56.932Z,22.36
2018-05-18T13:23:24.981Z,22.23
2018-05-18T13:25:53.062Z,22.20
2018-05-18T13:28:20.947Z,22.45
2018-05-18T13:30:49.062Z,22.55
2018-05-18T13:33:17.150Z,22.45
2018-05-18T13:35:45.063Z,22.36
2018-05-18T13:38:13.454Z,22.36
2018-05-18T13:40:42.113Z,22.28
2018-05-18T13:43:09.750Z,22.43
2018-05-18T13:45:37.871Z,22.53
2018-05-18T13:48:05.938Z,22.53
2018-05-18T13:50:33.636Z,22.55
2018-05-18T13:53:01.655Z,22.64
2018-05-18T13:55:29.467Z,22.43
2018-05-18T13:57:57.567Z,22.48
2018-05-18T14:00:25.979Z,22.48
2018-05-18T14:02:54.374Z,22.44
2018-05-18T14:05:22.684Z,22.38
2018-05-18T14:07:50.613Z,22.62
2018-05-18T14:10:18.425Z,22.57
2018-05-18T14:12:46.499Z,22.55
2018-05-18T14:15:14.472Z,22.51
2018-05-18T14:17:42.346Z,22.54
2018-05-18T14:20:10.503Z,22.50
2018-05-18T14:22:38.602Z,22.62
2018-05-18T14:25:06.295Z,22.63
2018-05-18T14:27:34.422Z,22.58
2018-05-18T14:30:02.418Z,22.53
2018-05-18T14:32:30.169Z,22.52
2018-05-18T14:34:59.148Z,22.61
2018-05-18T14:37:27.171Z,22.48
2018-05-18T14:39:54.887Z,22.55
2018-05-18T14:42:22.923Z,22.62
2018-05-18T14:44:51.235Z,22.72
2018-05-18T14:47:19.051Z,22.59
2018-05-18T14:49:47.111Z,22.51
2018-05-18T14:52:15.022Z,22.43
2018-05-18T14:54:42.692Z,22.58
2018-05-18T14:57:10.759Z,22.66
2018-05-18T14:59:38.744Z,22.65
2018-05-18T15:02:06.514Z,22.69
2018-05-18T15:04:34.539Z,22.63
2018-05-18T15:07:02.644Z,22.60
2018-05-18T15:09:30.361Z,22.54
2018-05-18T15:11:58.531Z,22.42
2018-05-18T15:14:26.469Z,22.46
2018-05-18T15:16:54.109Z,22.40
2018-05-18T15:19:22.108Z,22.44
2018-05-18T15:21:50.262Z,22.41
2018-05-18T15:24:17.982Z,22.42
2018-05-18T15:26:45.699Z,22.29
2018-05-18T15:29:13.885Z,22.25
2018-05-18T15:31:41.603Z,22.36
2018-05-18T15:34:09.337Z,22.48
2018-05-18T15:36:37.657Z,22.37
2018-05-18T15:39:07.430Z,22.41
2018-05-18T15:41:35.095Z,22.05
2018-05-18T15:44:03.461Z,22.18
2018-05-18T15:46:31.159Z,22.14
2018-05-18T15:48:58.905Z,22.06
2018-05-18T15:51:27.325Z,21.95
2018-05-18T15:53:55.184Z,21.98
2018-05-18T15:56:22.954Z,22.06
2018-05-18T15:58:51.097Z,22.07
2018-05-18T16:01:18.810Z,22.01
2018-05-18T16:03:46.561Z,21.95
2018-05-18T16:06:14.907Z,21.89
2018-05-18T16:08:42.863Z,21.87
2018-05-18T16:11:10.652Z,21.87
2018-05-18T16:13:39.046Z,21.89
2018-05-18T16:16:06.805Z,21.89
2018-05-18T16:18:34.519Z,21.80
2018-05-18T16:21:03.029Z,21.86
2018-05-18T16:23:30.981Z,21.86
2018-05-18T16:25:58.782Z,21.71
2018-05-18T16:28:27.315Z,21.76
2018-05-18T16:30:55.025Z,21.70
2018-05-18T16:33:22.834Z,21.67
2018-05-18T16:35:50.994Z,21.46
2018-05-18T16:38:18.736Z,21.54
2018-05-18T16:40:46.958Z,21.57
2018-05-18T16:43:14.991Z,21.57
2018-05-18T16:45:42.667Z,21.56
2018-05-18T16:48:10.623Z,21.49
2018-05-18T16:50:38.954Z,21.46
2018-05-18T16:53:06.805Z,21.41
2018-05-18T16:55:34.932Z,21.27
2018-05-18T16:58:02.981Z,21.26
2018-05-18T17:00:31.117Z,21.24
2018-05-18T17:02:59.299Z,21.21
2018-05-18T17:05:27.362Z,21.17
2018-05-18T17:07:55.257Z,21.12
2018-05-18T17:10:23.810Z,21.13
2018-05-18T17:12:51.780Z,21.10
2018-05-18T17:15:19.634Z,21.08
2018-05-18T17:17:47.835Z,21.04
2018-05-18T17:20:16.255Z,21.04
2018-05-18T17:22:43.984Z,21.11
2018-05-18T17:25:12.036Z,20.95
2018-05-18T17:27:40.782Z,21.01
2018-05-18T17:30:08.558Z,20.92
2018-05-18T17:32:36.277Z,20.87
2018-05-18T17:35:04.833Z,20.80
2018-05-18T17:37:33.109Z,20.79
2018-05-18T17:40:00.972Z,20.76
2018-05-18T17:42:29.291Z,20.73
2018-05-18T17:44:57.033Z,20.65
2018-05-18T17:47:25.152Z,20.59
2018-05-18T17:49:53.450Z,20.56
2018-05-18T17:52:21.690Z,20.53
2018-05-18T17:54:49.436Z,20.52
2018-05-18T17:57:17.574Z,20.46
2018-05-18T17:59:45.906Z,20.43
2018-05-18T18:02:14.941Z,20.33
2018-05-18T18:04:43.217Z,20.43
2018-05-18T18:07:11.029Z,20.40
2018-05-18T18:09:39.467Z,20.08
2018-05-18T18:12:08.212Z,20.38
2018-05-18T18:14:37.648Z,20.32
2018-05-18T18:17:05.754Z,20.22
2018-05-18T18:19:34.900Z,20.21
2018-05-18T18:22:03.204Z,20.16
2018-05-18T18:24:30.927Z,20.13
2018-05-18T18:26:59.894Z,20.10
2018-05-18T18:29:31.673Z,20.09
2018-05-18T18:31:59.889Z,20.04
2018-05-18T18:34:27.963Z,19.98
2018-05-18T18:36:55.670Z,19.97
2018-05-18T18:39:23.984Z,19.95
2018-05-18T18:41:51.892Z,19.95
2018-05-18T18:44:19.787Z,19.96
2018-05-18T18:46:48.515Z,19.93
2018-05-18T18:49:16.294Z,19.90
2018-05-18T18:51:44.014Z,19.91
2018-05-18T18:54:13.385Z,19.86
2018-05-18T18:56:41.388Z,19.80
2018-05-18T18:59:09.201Z,19.77
2018-05-18T19:01:37.763Z,19.78
2018-05-18T19:04:07.401Z,19.75
2018-05-18T19:06:35.611Z,19.62
2018-05-18T19:09:04.333Z,19.70
2018-05-18T19:11:32.358Z,19.66
2018-05-18T19:14:01.004Z,19.62
2018-05-18T19:16:29.629Z,19.59
2018-05-18T19:18:57.620Z,19.54
2018-05-18T19:21:25.315Z,19.50
2018-05-18T19:23:53.741Z,19.44
2018-05-18T19:26:21.961Z,19.34
2018-05-18T19:28:49.685Z,19.37
2018-05-18T19:31:17.697Z,19.40
2018-05-18T19:33:45.591Z,19.39
2018-05-18T19:36:13.315Z,19.34
2018-05-18T19:38:41.321Z,19.29
2018-05-18T19:41:09.216Z,19.29
2018-05-18T19:43:37.941Z,19.24
2018-05-18T19:46:06.548Z,19.20
2018-05-18T19:48:34.393Z,19.18
2018-05-18T19:51:02.598Z,19.11
2018-05-18T19:53:30.907Z,19.12
2018-05-18T19:55:58.786Z,19.08
2018-05-18T19:58:26.959Z,19.04
2018-05-18T20:00:55.373Z,19.03
2018-05-18T20:03:23.383Z,18.97
2018-05-18T20:05:51.511Z,18.91
2018-05-18T20:08:19.482Z,18.84
2018-05-18T20:10:47.457Z,18.81
2018-05-18T20:13:15.605Z,18.80
2018-05-18T20:15:43.449Z,18.74
2018-05-18T20:18:11.521Z,18.71
2018-05-18T20:20:39.908Z,18.66
2018-05-18T20:23:08.050Z,18.62
2018-05-18T20:25:36.015Z,18.55
2018-05-18T20:28:04.015Z,18.50
2018-05-18T20:30:32.117Z,18.46
2018-05-18T20:33:00.121Z,18.41
2018-05-18T20:35:28.568Z,18.36
2018-05-18T20:37:56.482Z,18.33
2018-05-18T20:40:24.447Z,18.30
2018-05-18T20:42:52.319Z,18.29
2018-05-18T20:45:20.341Z,18.26
2018-05-18T20:47:48.225Z,18.20
2018-05-18T20:50:16.404Z,18.25
2018-05-18T20:52:44.501Z,18.20
2018-05-18T20:55:12.535Z,18.09
2018-05-18T20:57:40.815Z,18.00
2018-05-18T21:00:08.985Z,17.92
2018-05-18T21:02:36.738Z,17.85
2018-05-18T21:05:04.742Z,17.75
2018-05-18T21:07:32.798Z,17.74
2018-05-18T21:10:00.498Z,17.72
2018-05-18T21:12:28.452Z,17.65
2018-05-18T21:14:56.519Z,17.62
2018-05-18T21:17:24.549Z,17.62
2018-05-18T21:19:53.238Z,17.59
2018-05-18T21:22:21.416Z,17.53
2018-05-18T21:24:49.498Z,17.47
2018-05-18T21:27:17.754Z,17.47
2018-05-18T21:29:45.687Z,17.43
2018-05-18T21:32:13.588Z,17.45
2018-05-18T21:34:41.321Z,17.34
2018-05-18T21:37:09.161Z,17.37
2018-05-18T21:39:37.030Z,17.42
2018-05-18T21:42:04.755Z,17.40
2018-05-18T21:44:32.794Z,17.41
2018-05-18T21:47:01.001Z,17.33
2018-05-18T21:49:28.757Z,17.27
2018-05-18T21:51:56.800Z,17.23
2018-05-18T21:54:24.616Z,17.21
2018-05-18T21:56:52.465Z,17.17
2018-05-18T21:59:20.603Z,17.18
2018-05-18T22:01:48.730Z,17.06
2018-05-18T22:04:17.081Z,17.02
2018-05-18T22:06:45.100Z,17.01
2018-05-18T22:09:13.043Z,16.91
2018-05-18T22:11:41.181Z,16.86
2018-05-18T22:14:09.617Z,16.86
2018-05-18T22:16:37.552Z,16.88
2018-05-18T22:19:05.574Z,16.82
2018-05-18T22:21:34.203Z,16.82
2018-05-18T22:24:02.130Z,16.74
2018-05-18T22:26:30.267Z,16.65
2018-05-18T22:28:58.270Z,16.53
2018-05-18T22:31:26.236Z,16.48
2018-05-18T22:33:54.451Z,16.41
2018-05-18T22:36:22.645Z,16.27
2018-05-18T22:38:50.596Z,16.22
2018-05-18T22:41:19.259Z,16.15
2018-05-18T22:43:47.323Z,16.12
2018-05-18T22:46:15.632Z,15.99
2018-05-18T22:48:43.443Z,15.98
2018-05-18T22:51:11.490Z,15.94
2018-05-18T22:53:39.551Z,15.85
2018-05-18T22:56:07.627Z,15.78
2018-05-18T22:58:36.395Z,15.71
2018-05-18T23:01:04.291Z,15.64
2018-05-18T23:03:32.460Z,15.59
2018-05-18T23:06:00.806Z,15.54
2018-05-18T23:08:28.598Z,15.52
2018-05-18T23:10:56.443Z,15.47
2018-05-18T23:13:25.337Z,15.46
2018-05-18T23:15:54.433Z,15.38
2018-05-18T23:18:22.598Z,15.35
2018-05-18T23:20:50.876Z,15.33
2018-05-18T23:23:19.008Z,15.26
2018-05-18T23:25:46.907Z,15.20
2018-05-18T23:28:15.640Z,15.13
2018-05-18T23:30:43.577Z,15.07
2018-05-18T23:33:11.645Z,15.03
2018-05-18T23:35:39.921Z,14.98
2018-05-18T23:38:08.153Z,14.93
2018-05-18T23:40:35.894Z,14.88
2018-05-18T23:43:04.032Z,14.82
2018-05-18T23:45:32.049Z,14.80
2018-05-18T23:47:59.914Z,14.74
2018-05-18T23:50:27.900Z,14.68
2018-05-18T23:52:56.977Z,14.58
2018-05-18T23:55:25.132Z,14.61
2018-05-18T23:57:53.173Z,14.55
